sensor_id;sensor_type;location;lat;lon;timestamp;P1;P2;P0
61879;PMS7003;47817;52.798;27.544;2023-02-11T00:01:43;26;16.6;11.8
61879;PMS7003;47817;52.798;27.544;2023-02-11T00:06:35;27.8;21;13.2
61879;PMS7003;47817;52.798;27.544;2023-02-11T00:11:59;21.8;18.2;12.2
61879;PMS7003;47817;52.798;27.544;2023-02-11T00:16:23;22.4;17.6;11.6
61879;PMS7003;47817;52.798;27.544;2023-02-11T00:21:59;22.4;17;11.6
61879;PMS7003;47817;52.798;27.544;2023-02-11T00:26:23;23.8;18.2;11.8
61879;PMS7003;47817;52.798;27.544;2023-02-11T00:31:47;19.3;15;10.3
61879;PMS7003;47817;52.798;27.544;2023-02-11T00:36:23;23.2;16.6;10.2
61879;PMS7003;47817;52.798;27.544;2023-02-11T00:41:57;19.8;14.6;10.2
61879;PMS7003;47817;52.798;27.544;2023-02-11T00:46:37;24.6;18;11.8
61879;PMS7003;47817;52.798;27.544;2023-02-11T00:51:47;20.4;14.6;10
61879;PMS7003;47817;52.798;27.544;2023-02-11T00:56:47;23.8;16.8;10.8
61879;PMS7003;47817;52.798;27.544;2023-02-11T01:01:57;23.4;18.4;11.6
61879;PMS7003;47817;52.798;27.544;2023-02-11T01:06:23;24.2;18.8;12
61879;PMS7003;47817;52.798;27.544;2023-02-11T01:11:23;21.6;17;10.6
61879;PMS7003;47817;52.798;27.544;2023-02-11T01:16:49;19;15.8;10.5
61879;PMS7003;47817;52.798;27.544;2023-02-11T01:21:23;24.4;18.8;12
61879;PMS7003;47817;52.798;27.544;2023-02-11T01:26:09;27;22;13
61879;PMS7003;47817;52.798;27.544;2023-02-11T01:31:57;28.8;20.8;13.2
61879;PMS7003;47817;52.798;27.544;2023-02-11T01:36:33;22.6;18.4;11.4
61879;PMS7003;47817;52.798;27.544;2023-02-11T01:41:33;25;19;12.5
61879;PMS7003;47817;52.798;27.544;2023-02-11T01:46:57;26;21.2;13.8
61879;PMS7003;47817;52.798;27.544;2023-02-11T01:51:36;27.6;20.2;12.4
61879;PMS7003;47817;52.798;27.544;2023-02-11T01:56:09;20.8;16;10.4
61879;PMS7003;47817;52.798;27.544;2023-02-11T02:01:29;22;15.4;11.8
61879;PMS7003;47817;52.798;27.544;2023-02-11T02:06:25;25.6;18.4;12.4
61879;PMS7003;47817;52.798;27.544;2023-02-11T02:11:35;25.2;18.6;11.8
61879;PMS7003;47817;52.798;27.544;2023-02-11T02:16:25;26.2;19.4;13.6
61879;PMS7003;47817;52.798;27.544;2023-02-11T02:21:52;24.6;20.8;12.8
61879;PMS7003;47817;52.798;27.544;2023-02-11T02:27:06;30.6;22.2;14.2
61879;PMS7003;47817;52.798;27.544;2023-02-11T02:32:09;32;23;14
61879;PMS7003;47817;52.798;27.544;2023-02-11T02:36:33;27.5;21.8;15.3
61879;PMS7003;47817;52.798;27.544;2023-02-11T02:41:57;29;20.8;12
61879;PMS7003;47817;52.798;27.544;2023-02-11T02:46:24;26;21.6;15
61879;PMS7003;47817;52.798;27.544;2023-02-11T02:51:38;30.6;22.2;15.2
61879;PMS7003;47817;52.798;27.544;2023-02-11T02:56:19;28.6;21.6;13.6
61879;PMS7003;47817;52.798;27.544;2023-02-11T03:01:11;32.2;24.6;15.8
61879;PMS7003;47817;52.798;27.544;2023-02-11T03:06:33;35.8;26.6;16.4
61879;PMS7003;47817;52.798;27.544;2023-02-11T03:11:23;24.8;19.8;13.5
61879;PMS7003;47817;52.798;27.544;2023-02-11T03:16:35;35.2;26.8;17.2
61879;PMS7003;47817;52.798;27.544;2023-02-11T03:21:59;34;26.2;15
61879;PMS7003;47817;52.798;27.544;2023-02-11T03:26:37;38.4;28.6;16.8
61879;PMS7003;47817;52.798;27.544;2023-02-11T03:31:36;37.8;28.4;17
61879;PMS7003;47817;52.798;27.544;2023-02-11T03:36:59;33.6;26.6;16
61879;PMS7003;47817;52.798;27.544;2023-02-11T03:41:29;35.5;27;16.5
61879;PMS7003;47817;52.798;27.544;2023-02-11T03:46:09;28;22;14.4
61879;PMS7003;47817;52.798;27.544;2023-02-11T03:51:23;30.6;23.6;15
61879;PMS7003;47817;52.798;27.544;2023-02-11T03:56:35;30.8;20.4;12.6
61879;PMS7003;47817;52.798;27.544;2023-02-11T04:01:35;26.2;20.6;13.6
61879;PMS7003;47817;52.798;27.544;2023-02-11T04:06:59;32.8;22.2;15.8
61879;PMS7003;47817;52.798;27.544;2023-02-11T04:11:35;28.8;21.6;14.8
61879;PMS7003;47817;52.798;27.544;2023-02-11T04:16:47;34.8;25;15.4
61879;PMS7003;47817;52.798;27.544;2023-02-11T04:21:35;32.8;25.4;13.4
61879;PMS7003;47817;52.798;27.544;2023-02-11T04:26:57;31.4;22.2;12.8
61879;PMS7003;47817;52.798;27.544;2023-02-11T04:31:09;30.8;23.8;14
61879;PMS7003;47817;52.798;27.544;2023-02-11T04:36:45;32.3;26.8;15.5
61879;PMS7003;47817;52.798;27.544;2023-02-11T04:41:23;33.6;25.8;15.2
61879;PMS7003;47817;52.798;27.544;2023-02-11T04:46:59;34.2;25.6;15.4
61879;PMS7003;47817;52.798;27.544;2023-02-11T04:51:47;32.8;23.8;14
61879;PMS7003;47817;52.798;27.544;2023-02-11T04:56:57;29.8;22.2;14.4
61879;PMS7003;47817;52.798;27.544;2023-02-11T05:01:57;33.4;25.6;15
61879;PMS7003;47817;52.798;27.544;2023-02-11T05:06:45;35.5;26.5;16.3
61879;PMS7003;47817;52.798;27.544;2023-02-11T05:11:45;40.6;26.2;15.2
61879;PMS7003;47817;52.798;27.544;2023-02-11T05:16:21;33;22.6;14.6
61879;PMS7003;47817;52.798;27.544;2023-02-11T05:21:45;29.6;21.2;12
61879;PMS7003;47817;52.798;27.544;2023-02-11T05:26:09;27.8;21.8;13.8
61879;PMS7003;47817;52.798;27.544;2023-02-11T05:31:41;30.4;22.4;13.6
61879;PMS7003;47817;52.798;27.544;2023-02-11T05:36:23;28.2;20.4;13.6
61879;PMS7003;47817;52.798;27.544;2023-02-11T05:41:43;29.4;22;13.8
61879;PMS7003;47817;52.798;27.544;2023-02-11T05:46:33;28.5;20.5;13
61879;PMS7003;47817;52.798;27.544;2023-02-11T05:51:57;29.6;21.8;12.8
61879;PMS7003;47817;52.798;27.544;2023-02-11T05:56:47;26.2;19.2;13
61879;PMS7003;47817;52.798;27.544;2023-02-11T06:01:43;30.2;22.4;13.8
61879;PMS7003;47817;52.798;27.544;2023-02-11T06:06:57;33;22.2;13.8
61879;PMS7003;47817;52.798;27.544;2023-02-11T06:11:19;30.2;21.6;14
61879;PMS7003;47817;52.798;27.544;2023-02-11T06:16:47;35.2;26;15
61879;PMS7003;47817;52.798;27.544;2023-02-11T06:21:43;30;22;13.6
61879;PMS7003;47817;52.798;27.544;2023-02-11T06:26:47;29.4;21.2;13.2
61879;PMS7003;47817;52.798;27.544;2023-02-11T06:31:09;28.8;21.2;14
61879;PMS7003;47817;52.798;27.544;2023-02-11T06:36:57;32.4;23.8;15.2
61879;PMS7003;47817;52.798;27.544;2023-02-11T06:41:33;29.3;21.5;14
61879;PMS7003;47817;52.798;27.544;2023-02-11T06:46:59;32.4;24.8;15.2
61879;PMS7003;47817;52.798;27.544;2023-02-11T06:51:43;35.8;22.6;14.4
61879;PMS7003;47817;52.798;27.544;2023-02-11T06:56:45;32.6;26.2;15.4
61879;PMS7003;47817;52.798;27.544;2023-02-11T07:01:55;35;25;14.3
61879;PMS7003;47817;52.798;27.544;2023-02-11T07:06:23;27.8;23.8;15
61879;PMS7003;47817;52.798;27.544;2023-02-11T07:11:45;32;22.2;13.2
61879;PMS7003;47817;52.798;27.544;2023-02-11T07:16:19;31.6;23.8;14.8
61879;PMS7003;47817;52.798;27.544;2023-02-11T07:21:35;40.4;31.4;18.6
61879;PMS7003;47817;52.798;27.544;2023-02-11T07:26:21;34.6;23.8;13.6
61879;PMS7003;47817;52.798;27.544;2023-02-11T07:31:57;29.4;24.6;15.2
61879;PMS7003;47817;52.798;27.544;2023-02-11T07:36:45;30.8;23.2;14.8
61879;PMS7003;47817;52.798;27.544;2023-02-11T07:41:47;32;24;14.4
61879;PMS7003;47817;52.798;27.544;2023-02-11T07:46:24;33;24.4;15.6
61879;PMS7003;47817;52.798;27.544;2023-02-11T07:51:57;34.8;26;14.8
61879;PMS7003;47817;52.798;27.544;2023-02-11T07:56:35;29;25.2;14.2
61879;PMS7003;47817;52.798;27.544;2023-02-11T08:01:35;34.2;26.8;14
61879;PMS7003;47817;52.798;27.544;2023-02-11T08:06:57;34;25;14.4
61879;PMS7003;47817;52.798;27.544;2023-02-11T08:11:33;31.6;24.2;14
61879;PMS7003;47817;52.798;27.544;2023-02-11T08:16:35;31.2;24.4;14.6
61879;PMS7003;47817;52.798;27.544;2023-02-11T08:21:59;31.8;25.2;15.6
61879;PMS7003;47817;52.798;27.544;2023-02-11T08:26:59;28.6;23;14.8
61879;PMS7003;47817;52.798;27.544;2023-02-11T08:31:17;31.6;24.8;15.6
61879;PMS7003;47817;52.798;27.544;2023-02-11T08:36:59;33.5;20.8;13
61879;PMS7003;47817;52.798;27.544;2023-02-11T08:41:09;31.4;25.2;15.2
61879;PMS7003;47817;52.798;27.544;2023-02-11T08:46:43;35.2;26.8;14.8
61879;PMS7003;47817;52.798;27.544;2023-02-11T08:51:11;30;23.8;14.6
61879;PMS7003;47817;52.798;27.544;2023-02-11T08:56:33;29.8;25;13.8
61879;PMS7003;47817;52.798;27.544;2023-02-11T09:01:09;35.8;29;16.8
61879;PMS7003;47817;52.798;27.544;2023-02-11T09:06:09;35;26.3;16
61879;PMS7003;47817;52.798;27.544;2023-02-11T09:11:35;38.6;28.6;17.2
61879;PMS7003;47817;52.798;27.544;2023-02-11T09:16:55;39.8;28.8;18
61879;PMS7003;47817;52.798;27.544;2023-02-11T09:21:09;32.2;25;14.8
61879;PMS7003;47817;52.798;27.544;2023-02-11T09:26:10;39;29;17.8
61879;PMS7003;47817;52.798;27.544;2023-02-11T09:31:55;36.4;27.2;16.2
61879;PMS7003;47817;52.798;27.544;2023-02-11T09:36:09;40.6;30.6;18.4
61879;PMS7003;47817;52.798;27.544;2023-02-11T09:41:16;34.4;25.2;17.6
61879;PMS7003;47817;52.798;27.544;2023-02-11T09:46:35;36.6;28.2;16.6
61879;PMS7003;47817;52.798;27.544;2023-02-11T09:51:19;34.2;27.2;17.6
61879;PMS7003;47817;52.798;27.544;2023-02-11T09:56:35;38.5;28.8;18
61879;PMS7003;47817;52.798;27.544;2023-02-11T10:01:58;37.6;29.8;17.4
61879;PMS7003;47817;52.798;27.544;2023-02-11T10:06:38;38.2;30.4;18
61879;PMS7003;47817;52.798;27.544;2023-02-11T10:12:02;37;28.2;17.6
61879;PMS7003;47817;52.798;27.544;2023-02-11T10:17:01;30.6;24;16.2
61879;PMS7003;47817;52.798;27.544;2023-02-11T10:22:02;26.5;20.5;13.5
61879;PMS7003;47817;52.798;27.544;2023-02-11T10:26:25;32.4;24.8;15.4
61879;PMS7003;47817;52.798;27.544;2023-02-11T10:31:45;31.8;23.8;14.4
61879;PMS7003;47817;52.798;27.544;2023-02-11T10:36:24;32.2;24.6;15.6
61879;PMS7003;47817;52.798;27.544;2023-02-11T10:41:59;29.8;25.6;15.8
61879;PMS7003;47817;52.798;27.544;2023-02-11T10:46:23;35.6;28.2;16.4
61879;PMS7003;47817;52.798;27.544;2023-02-11T10:51:35;27.6;21.8;14
61879;PMS7003;47817;52.798;27.544;2023-02-11T10:56:57;30.2;24.8;15.2
61879;PMS7003;47817;52.798;27.544;2023-02-11T11:01:38;30.8;23;14.5
61879;PMS7003;47817;52.798;27.544;2023-02-11T11:07:08;27;21.4;13.2
61879;PMS7003;47817;52.798;27.544;2023-02-11T11:11:37;31.8;23.6;14.8
61879;PMS7003;47817;52.798;27.544;2023-02-11T11:16:57;23.4;17.2;11.6
61879;PMS7003;47817;52.798;27.544;2023-02-11T11:21:11;29.2;20.8;13.6
61879;PMS7003;47817;52.798;27.544;2023-02-11T11:26:23;32;23.2;15.4
61879;PMS7003;47817;52.798;27.544;2023-02-11T11:31:12;25.8;22.6;13.2
61879;PMS7003;47817;52.798;27.544;2023-02-11T11:36:55;29.4;22.8;14.4
61879;PMS7003;47817;52.798;27.544;2023-02-11T11:41:24;29.6;22.6;14.6
61879;PMS7003;47817;52.798;27.544;2023-02-11T11:47:17;30.4;23.2;13.8
61879;PMS7003;47817;52.798;27.544;2023-02-11T11:51:57;27.2;19;13.4
61879;PMS7003;47817;52.798;27.544;2023-02-11T11:56:46;27.3;21.5;14
61879;PMS7003;47817;52.798;27.544;2023-02-11T12:01:41;24.8;19.4;14
61879;PMS7003;47817;52.798;27.544;2023-02-11T12:06:12;26.4;21.8;14.2
61879;PMS7003;47817;52.798;27.544;2023-02-11T12:11:51;31.4;23.4;16
61879;PMS7003;47817;52.798;27.544;2023-02-11T12:16:11;30.8;23.8;15.4
61879;PMS7003;47817;52.798;27.544;2023-02-11T12:21:47;33.8;22.8;15.4
61879;PMS7003;47817;52.798;27.544;2023-02-11T12:26:19;29.8;22.3;15.3
61879;PMS7003;47817;52.798;27.544;2023-02-11T12:31:43;30.6;24;15.8
61879;PMS7003;47817;52.798;27.544;2023-02-11T12:36:26;28.2;23;15.2
61879;PMS7003;47817;52.798;27.544;2023-02-11T12:42:03;30.6;24.6;15.4
61879;PMS7003;47817;52.798;27.544;2023-02-11T12:46:45;30;26;17
61879;PMS7003;47817;52.798;27.544;2023-02-11T12:51:50;31.2;22.6;15.6
61879;PMS7003;47817;52.798;27.544;2023-02-11T12:56:59;30.4;24.2;16.2
61879;PMS7003;47817;52.798;27.544;2023-02-11T13:01:18;32.6;23.8;16
61879;PMS7003;47817;52.798;27.544;2023-02-11T13:06:36;27.5;20.5;14.5
61879;PMS7003;47817;52.798;27.544;2023-02-11T13:11:10;34;25.4;14.8
61879;PMS7003;47817;52.798;27.544;2023-02-11T13:16:32;31.4;25.6;15.4
61879;PMS7003;47817;52.798;27.544;2023-02-11T13:21:40;28.4;22.2;15.4
61879;PMS7003;47817;52.798;27.544;2023-02-11T13:26:59;25.4;21.6;15.2
61879;PMS7003;47817;52.798;27.544;2023-02-11T13:31:31;26.4;20;13.6
61879;PMS7003;47817;52.798;27.544;2023-02-11T13:36:52;26.2;22.6;14.8
61879;PMS7003;47817;52.798;27.544;2023-02-11T13:41:36;29;21.8;16
61879;PMS7003;47817;52.798;27.544;2023-02-11T13:46:59;30.8;24.8;15.8
61879;PMS7003;47817;52.798;27.544;2023-02-11T13:51:39;32.6;23.8;16
61879;PMS7003;47817;52.798;27.544;2023-02-11T13:56:10;29.4;23.4;15.4
61879;PMS7003;47817;52.798;27.544;2023-02-11T14:02:02;30;22.4;15
61879;PMS7003;47817;52.798;27.544;2023-02-11T14:06:10;31;22.6;14.2
61879;PMS7003;47817;52.798;27.544;2023-02-11T14:11:48;28.2;23.2;16.6
61879;PMS7003;47817;52.798;27.544;2023-02-11T14:17:16;24.2;18.8;12.2
61879;PMS7003;47817;52.798;27.544;2023-02-11T14:22:00;34;27.6;18.2
61879;PMS7003;47817;52.798;27.544;2023-02-11T14:26:33;27;22.3;14.3
61879;PMS7003;47817;52.798;27.544;2023-02-11T14:31:57;31;22.8;15.8
61879;PMS7003;47817;52.798;27.544;2023-02-11T14:36:39;37;25;16
61879;PMS7003;47817;52.798;27.544;2023-02-11T14:41:09;35;26.6;16.8
61879;PMS7003;47817;52.798;27.544;2023-02-11T14:46:35;29.6;26;18.4
61879;PMS7003;47817;52.798;27.544;2023-02-11T14:51:10;29;22.4;15
61879;PMS7003;47817;52.798;27.544;2023-02-11T14:57:08;38;27.4;17.6
61879;PMS7003;47817;52.798;27.544;2023-02-11T15:01:21;33.5;25.5;15.8
61879;PMS7003;47817;52.798;27.544;2023-02-11T15:06:47;36;27;16.6
61879;PMS7003;47817;52.798;27.544;2023-02-11T15:11:59;33.8;26.4;16.4
61879;PMS7003;47817;52.798;27.544;2023-02-11T15:16:57;36.2;26.6;17.4
61879;PMS7003;47817;52.798;27.544;2023-02-11T15:21:35;31.4;26.6;16
61879;PMS7003;47817;52.798;27.544;2023-02-11T15:27:00;32;27;17.3
61879;PMS7003;47817;52.798;27.544;2023-02-11T15:31:29;37.2;25;17.2
61879;PMS7003;47817;52.798;27.544;2023-02-11T15:36:35;33.2;25.4;16.2
61879;PMS7003;47817;52.798;27.544;2023-02-11T15:41:34;30.8;23.4;16.6
61879;PMS7003;47817;52.798;27.544;2023-02-11T15:46:09;37;25.6;16
61879;PMS7003;47817;52.798;27.544;2023-02-11T15:51:35;30.2;24.4;15.8
61879;PMS7003;47817;52.798;27.544;2023-02-11T15:56:21;42.8;30.4;18.8
61879;PMS7003;47817;52.798;27.544;2023-02-11T16:01:37;31.8;23.8;15.2
61879;PMS7003;47817;52.798;27.544;2023-02-11T16:06:59;32;25.2;14
61879;PMS7003;47817;52.798;27.544;2023-02-11T16:11:52;32.2;23.2;14.8
61879;PMS7003;47817;52.798;27.544;2023-02-11T16:16:33;28;22.4;15
61879;PMS7003;47817;52.798;27.544;2023-02-11T16:21:59;26.3;21.3;14.5
61879;PMS7003;47817;52.798;27.544;2023-02-11T16:26:24;31;24.2;15.2
61879;PMS7003;47817;52.798;27.544;2023-02-11T16:31:37;24.8;18.8;13.4
61879;PMS7003;47817;52.798;27.544;2023-02-11T16:36:35;28.6;21.4;13
61879;PMS7003;47817;52.798;27.544;2023-02-11T16:41:09;25;20;14
61879;PMS7003;47817;52.798;27.544;2023-02-11T16:46:25;27.2;21.4;14
61879;PMS7003;47817;52.798;27.544;2023-02-11T16:51:48;28.6;22.2;14.2
61879;PMS7003;47817;52.798;27.544;2023-02-11T16:56:21;27;18.2;12.8
61879;PMS7003;47817;52.798;27.544;2023-02-11T17:01:53;28.4;21;13.8
61879;PMS7003;47817;52.798;27.544;2023-02-11T17:06:21;25.6;19.4;13.4
61879;PMS7003;47817;52.798;27.544;2023-02-11T17:11:57;22.8;17.8;12.6
61879;PMS7003;47817;52.798;27.544;2023-02-11T17:16:23;20.5;16.5;11.3
61879;PMS7003;47817;52.798;27.544;2023-02-11T17:21:45;25.2;18.4;13.2
61879;PMS7003;47817;52.798;27.544;2023-02-11T17:26:23;25.4;19.2;13.2
61879;PMS7003;47817;52.798;27.544;2023-02-11T17:31:53;24.8;18.3;13
61879;PMS7003;47817;52.798;27.544;2023-02-11T17:36:35;20.8;17;12.6
61879;PMS7003;47817;52.798;27.544;2023-02-11T17:41:59;22.6;17.6;12
61879;PMS7003;47817;52.798;27.544;2023-02-11T17:46:59;19.8;15.2;11.2
61879;PMS7003;47817;52.798;27.544;2023-02-11T17:51:47;18.6;16.4;11.2
61879;PMS7003;47817;52.798;27.544;2023-02-11T17:56:43;18.8;16;11.6
61879;PMS7003;47817;52.798;27.544;2023-02-11T18:01:37;18.8;14.8;10.2
61879;PMS7003;47817;52.798;27.544;2023-02-11T18:06:47;15;10.2;8
61879;PMS7003;47817;52.798;27.544;2023-02-11T18:11:09;12.4;11.2;8.2
61879;PMS7003;47817;52.798;27.544;2023-02-11T18:16:59;12.6;9.8;7.6
61879;PMS7003;47817;52.798;27.544;2023-02-11T18:21:24;14.8;10.8;8.8
61879;PMS7003;47817;52.798;27.544;2023-02-11T18:26:45;13;11;8
61879;PMS7003;47817;52.798;27.544;2023-02-11T18:31:29;13;12.6;9
61879;PMS7003;47817;52.798;27.544;2023-02-11T18:36:59;15.2;11;8
61879;PMS7003;47817;52.798;27.544;2023-02-11T18:41:09;14;11.4;8.2
61879;PMS7003;47817;52.798;27.544;2023-02-11T18:46:45;16.4;11.6;8.4
61879;PMS7003;47817;52.798;27.544;2023-02-11T18:51:57;10.8;10.3;7.5
61879;PMS7003;47817;52.798;27.544;2023-02-11T18:56:24;16;11.4;7.8
61879;PMS7003;47817;52.798;27.544;2023-02-11T19:01:57;14.6;11.4;8.4
61879;PMS7003;47817;52.798;27.544;2023-02-11T19:06:26;18;10.8;7.8
61879;PMS7003;47817;52.798;27.544;2023-02-11T19:11:45;17;11.8;8.2
61879;PMS7003;47817;52.798;27.544;2023-02-11T19:16:23;14.8;10.4;7.6
61879;PMS7003;47817;52.798;27.544;2023-02-11T19:21:45;15.6;11.2;8.2
61879;PMS7003;47817;52.798;27.544;2023-02-11T19:26:33;12.8;9.2;7.2
61879;PMS7003;47817;52.798;27.544;2023-02-11T19:31:55;11.5;9.5;7.3
61879;PMS7003;47817;52.798;27.544;2023-02-11T19:36:33;14.6;10.2;7.6
61879;PMS7003;47817;52.798;27.544;2023-02-11T19:41:47;13.4;9.6;7.2
61879;PMS7003;47817;52.798;27.544;2023-02-11T19:46:59;11.6;10.2;7.4
61879;PMS7003;47817;52.798;27.544;2023-02-11T19:51:09;14;11;7.4
61879;PMS7003;47817;52.798;27.544;2023-02-11T19:56:45;14.2;10.8;7.8
61879;PMS7003;47817;52.798;27.544;2023-02-11T20:01:10;15.6;10.8;7.4
61879;PMS7003;47817;52.798;27.544;2023-02-11T20:06:35;13.6;9.2;6.4
61879;PMS7003;47817;52.798;27.544;2023-02-11T20:11:09;15;10.8;7.8
61879;PMS7003;47817;52.798;27.544;2023-02-11T20:16:57;13.6;10.6;7.2
61879;PMS7003;47817;52.798;27.544;2023-02-11T20:21:33;16.5;10;7
61879;PMS7003;47817;52.798;27.544;2023-02-11T20:26:37;10.4;6.6;5.8
61879;PMS7003;47817;52.798;27.544;2023-02-11T20:31:45;8.6;5.2;4.4
61879;PMS7003;47817;52.798;27.544;2023-02-11T20:36:59;6.8;4.4;2.8
61879;PMS7003;47817;52.798;27.544;2023-02-11T20:41:33;5;3.8;2.4
61879;PMS7003;47817;52.798;27.544;2023-02-11T20:46:09;3.4;2;1.8
61879;PMS7003;47817;52.798;27.544;2023-02-11T20:51:59;1.6;1.4;1.4
61879;PMS7003;47817;52.798;27.544;2023-02-11T20:56:10;2;1;1
61879;PMS7003;47817;52.798;27.544;2023-02-11T21:01:47;0.2;0.2;0
61879;PMS7003;47817;52.798;27.544;2023-02-11T21:06:56;0.6;0.4;0.4
61879;PMS7003;47817;52.798;27.544;2023-02-11T21:11:57;0.8;0.2;0
61879;PMS7003;47817;52.798;27.544;2023-02-11T21:16:21;0;0;0
61879;PMS7003;47817;52.798;27.544;2023-02-11T21:21:59;0;0;0
61879;PMS7003;47817;52.798;27.544;2023-02-11T21:26:43;0;0;0
61879;PMS7003;47817;52.798;27.544;2023-02-11T21:31:12;0.6;0.2;0.2
61879;PMS7003;47817;52.798;27.544;2023-02-11T21:36:35;0;0;0
61879;PMS7003;47817;52.798;27.544;2023-02-11T21:41:09;0.4;0.2;0.2
61879;PMS7003;47817;52.798;27.544;2023-02-11T21:46:19;0.2;0;0
61879;PMS7003;47817;52.798;27.544;2023-02-11T21:51:47;0;0;0
61879;PMS7003;47817;52.798;27.544;2023-02-11T21:56:09;0.2;0;0
61879;PMS7003;47817;52.798;27.544;2023-02-11T22:01:53;0.4;0;0
61879;PMS7003;47817;52.798;27.544;2023-02-11T22:06:22;0.4;0;0
61879;PMS7003;47817;52.798;27.544;2023-02-11T22:11:23;0;0;0
61879;PMS7003;47817;52.798;27.544;2023-02-11T22:16:59;0;0;0
61879;PMS7003;47817;52.798;27.544;2023-02-11T22:21:43;0;0;0
61879;PMS7003;47817;52.798;27.544;2023-02-11T22:26:37;0.2;0;0
61879;PMS7003;47817;52.798;27.544;2023-02-11T22:31:35;0.3;0;0
61879;PMS7003;47817;52.798;27.544;2023-02-11T22:36:19;0.8;0;0
61879;PMS7003;47817;52.798;27.544;2023-02-11T22:41:35;0;0;0
61879;PMS7003;47817;52.798;27.544;2023-02-11T22:46:57;0.2;0;0
61879;PMS7003;47817;52.798;27.544;2023-02-11T22:51:23;0.2;0;0
61879;PMS7003;47817;52.798;27.544;2023-02-11T22:56:57;0.2;0;0
61879;PMS7003;47817;52.798;27.544;2023-02-11T23:01:33;0.2;0;0
61879;PMS7003;47817;52.798;27.544;2023-02-11T23:06:59;0.3;0;0
61879;PMS7003;47817;52.798;27.544;2023-02-11T23:11:24;0;0;0
61879;PMS7003;47817;52.798;27.544;2023-02-11T23:16:45;0;0;0
61879;PMS7003;47817;52.798;27.544;2023-02-11T23:21:10;0.2;0;0
61879;PMS7003;47817;52.798;27.544;2023-02-11T23:26:57;0.4;0;0
61879;PMS7003;47817;52.798;27.544;2023-02-11T23:31:45;0.8;0;0
61879;PMS7003;47817;52.798;27.544;2023-02-11T23:36:59;0;0;0
61879;PMS7003;47817;52.798;27.544;2023-02-11T23:41:59;0;0;0
61879;PMS7003;47817;52.798;27.544;2023-02-11T23:46:45;0.2;0;0
61879;PMS7003;47817;52.798;27.544;2023-02-11T23:51:45;0.2;0;0
61879;PMS7003;47817;52.798;27.544;2023-02-11T23:56:22;0.4;0;0
